createdAt,value
2023-01-28T00:00:53.399Z,8.87
2023-01-28T00:03:36.588Z,8.88
2023-01-28T00:06:26.404Z,8.97
2023-01-28T00:09:08.619Z,8.94
2023-01-28T00:11:57.461Z,8.95
2023-01-28T00:14:39.742Z,8.94
2023-01-28T00:17:28.421Z,8.92
2023-01-28T00:20:12.126Z,8.97
2023-01-28T00:23:01.412Z,9.02
2023-01-28T00:25:43.748Z,9.01
2023-01-28T00:28:32.405Z,9.02
2023-01-28T00:31:18.095Z,9.08
2023-01-28T00:34:08.393Z,9.05
2023-01-28T00:36:58.424Z,9.00
2023-01-28T00:39:47.382Z,8.98
2023-01-28T00:42:36.354Z,8.97
2023-01-28T00:45:19.272Z,8.94
2023-01-28T00:48:10.377Z,8.90
2023-01-28T00:51:01.354Z,8.92
2023-01-28T00:53:51.329Z,8.89
2023-01-28T00:56:44.493Z,8.82
2023-01-28T00:59:27.226Z,8.82
2023-01-28T01:02:22.556Z,8.87
2023-01-28T01:05:04.779Z,8.97
2023-01-28T01:07:53.445Z,8.90
2023-01-28T01:10:35.727Z,8.99
2023-01-28T01:13:24.330Z,9.14
2023-01-28T01:16:19.563Z,9.29
2023-01-28T01:19:08.767Z,9.39
2023-01-28T01:21:51.667Z,9.36
2023-01-28T01:24:41.368Z,9.44
2023-01-28T01:27:30.297Z,9.56
2023-01-28T01:30:26.353Z,9.68
2023-01-28T01:33:14.637Z,9.51
2023-01-28T01:36:02.431Z,9.44
2023-01-28T01:38:51.708Z,9.36
2023-01-28T01:41:39.443Z,9.77
2023-01-28T01:44:55.665Z,9.86
2023-01-28T01:48:03.331Z,9.91
2023-01-28T01:50:59.662Z,9.78
2023-01-28T01:53:41.501Z,9.57
2023-01-28T01:56:35.671Z,9.58
2023-01-28T01:59:22.357Z,9.89
2023-01-28T02:02:09.043Z,9.75
2023-01-28T02:04:59.702Z,9.69
2023-01-28T02:07:50.755Z,9.73
2023-01-28T02:10:33.440Z,9.91
2023-01-28T02:13:17.472Z,10.16
2023-01-28T02:16:07.367Z,10.27
2023-01-28T02:18:49.569Z,10.24
2023-01-28T02:22:13.388Z,10.09
2023-01-28T02:25:18.418Z,10.01
2023-01-28T02:28:42.359Z,10.15
2023-01-28T02:31:40.254Z,10.20
2023-01-28T02:34:48.437Z,10.06
2023-01-28T02:37:47.649Z,10.00
2023-01-28T02:41:03.412Z,9.92
2023-01-28T02:43:48.614Z,9.86
2023-01-28T02:46:55.415Z,9.65
2023-01-28T02:49:44.668Z,9.66
2023-01-28T02:53:22.362Z,9.88
2023-01-28T02:56:21.696Z,9.84
2023-01-28T02:59:41.415Z,10.06
2023-01-28T03:02:26.756Z,10.50
2023-01-28T03:05:23.752Z,10.70
2023-01-28T03:08:26.439Z,10.96
2023-01-28T03:11:34.371Z,11.19
2023-01-28T03:14:37.254Z,11.54
2023-01-28T03:18:00.358Z,11.87
2023-01-28T03:21:08.327Z,12.12
2023-01-28T03:24:21.428Z,12.34
2023-01-28T03:27:41.841Z,12.73
2023-01-28T03:31:12.370Z,14.00
2023-01-28T03:34:25.909Z,14.92
2023-01-28T03:37:08.345Z,15.28
2023-01-28T03:40:20.201Z,16.03
2023-01-28T03:43:09.331Z,16.43
2023-01-28T03:46:01.105Z,17.08
2023-01-28T03:48:44.390Z,17.49
2023-01-28T03:51:27.499Z,17.87
2023-01-28T03:54:16.362Z,18.04
2023-01-28T03:57:04.715Z,18.59
2023-01-28T03:59:47.360Z,18.75
2023-01-28T04:02:37.281Z,19.40
2023-01-28T04:05:30.401Z,19.58
2023-01-28T04:08:19.666Z,19.83
2023-01-28T04:11:27.709Z,19.83
2023-01-28T04:14:17.624Z,19.83
2023-01-28T04:17:07.435Z,20.29
2023-01-28T04:19:58.244Z,20.77
2023-01-28T04:22:48.359Z,20.86
2023-01-28T04:25:38.597Z,20.90
2023-01-28T04:28:21.302Z,21.50
2023-01-28T04:31:16.172Z,21.36
2023-01-28T04:34:34.379Z,21.45
2023-01-28T04:37:49.253Z,21.57
2023-01-28T04:41:07.337Z,21.74
2023-01-28T04:43:52.687Z,21.99
2023-01-28T04:47:01.309Z,22.15
2023-01-28T04:50:09.350Z,22.22
2023-01-28T04:53:07.866Z,21.78
2023-01-28T04:56:21.382Z,21.81
2023-01-28T04:59:10.621Z,21.83
2023-01-28T05:01:53.435Z,22.18
2023-01-28T05:04:42.793Z,21.84
2023-01-28T05:07:40.336Z,21.71
2023-01-28T05:10:31.677Z,21.92
2023-01-28T05:13:15.622Z,22.23
2023-01-28T05:16:03.590Z,22.09
2023-01-28T05:18:46.353Z,21.81
2023-01-28T05:21:29.433Z,21.67
2023-01-28T05:24:24.350Z,21.60
2023-01-28T05:27:06.468Z,21.62
2023-01-28T05:29:55.395Z,21.59
2023-01-28T05:32:43.661Z,20.93
2023-01-28T05:35:30.364Z,21.05
2023-01-28T05:38:15.116Z,20.53
2023-01-28T05:41:04.316Z,21.01
2023-01-28T05:43:54.418Z,20.58
2023-01-28T05:46:47.753Z,20.54
2023-01-28T05:49:59.387Z,20.02
2023-01-28T05:52:53.372Z,20.33
2023-01-28T05:55:40.079Z,20.79
2023-01-28T05:58:29.312Z,21.35
2023-01-28T06:01:12.639Z,21.46
2023-01-28T06:04:07.435Z,22.31
2023-01-28T06:06:56.612Z,22.22
2023-01-28T06:09:39.323Z,22.28
2023-01-28T06:12:23.692Z,22.65
2023-01-28T06:15:30.521Z,23.07
2023-01-28T06:18:25.500Z,22.23
2023-01-28T06:21:15.371Z,21.78
2023-01-28T06:24:04.659Z,21.57
2023-01-28T06:26:46.335Z,21.30
2023-01-28T06:29:35.778Z,21.23
2023-01-28T06:32:30.356Z,21.29
2023-01-28T06:35:19.685Z,21.19
2023-01-28T06:38:02.331Z,21.32
2023-01-28T06:40:50.636Z,21.51
2023-01-28T06:43:35.340Z,21.08
2023-01-28T06:46:24.319Z,20.73
2023-01-28T06:49:06.596Z,20.45
2023-01-28T06:51:55.333Z,20.92
2023-01-28T06:54:37.626Z,21.32
2023-01-28T06:57:26.326Z,21.74
2023-01-28T07:00:16.689Z,21.50
2023-01-28T07:03:05.494Z,22.00
2023-01-28T07:05:47.794Z,21.79
2023-01-28T07:08:36.328Z,21.85
2023-01-28T07:11:25.342Z,21.89
2023-01-28T07:14:13.628Z,21.52
2023-01-28T07:16:56.396Z,21.66
2023-01-28T07:19:45.653Z,21.82
2023-01-28T07:22:28.402Z,21.99
2023-01-28T07:25:18.669Z,22.29
2023-01-28T07:28:02.687Z,21.84
2023-01-28T07:30:44.635Z,21.37
2023-01-28T07:33:33.380Z,21.45
2023-01-28T07:36:15.584Z,21.70
2023-01-28T07:39:04.403Z,21.74
2023-01-28T07:41:52.731Z,21.66
2023-01-28T07:44:46.345Z,21.93
2023-01-28T07:47:36.784Z,22.03
2023-01-28T07:50:20.339Z,22.15
2023-01-28T07:53:05.961Z,22.16
2023-01-28T07:55:55.323Z,22.13
2023-01-28T07:58:37.551Z,22.22
2023-01-28T08:01:27.353Z,22.08
2023-01-28T08:04:16.863Z,22.12
2023-01-28T08:07:00.349Z,22.13
2023-01-28T08:09:49.754Z,22.11
2023-01-28T08:12:33.702Z,22.20
2023-01-28T08:15:22.304Z,21.91
2023-01-28T08:18:06.292Z,21.73
2023-01-28T08:20:55.373Z,21.86
2023-01-28T08:23:37.808Z,21.77
2023-01-28T08:26:35.435Z,21.94
2023-01-28T08:29:17.802Z,22.12
2023-01-28T08:32:06.274Z,21.90
2023-01-28T08:34:55.701Z,21.61
2023-01-28T08:37:43.599Z,21.54
2023-01-28T08:40:26.316Z,21.57
2023-01-28T08:43:15.621Z,21.62
2023-01-28T08:45:58.493Z,21.77
2023-01-28T08:48:47.735Z,21.84
2023-01-28T08:51:30.343Z,21.78
2023-01-28T08:54:12.753Z,21.83
2023-01-28T08:57:01.341Z,21.80
2023-01-28T08:59:50.884Z,21.67
2023-01-28T09:02:32.533Z,21.55
2023-01-28T09:05:21.734Z,21.37
2023-01-28T09:08:04.269Z,21.10
2023-01-28T09:10:53.284Z,21.14
2023-01-28T09:13:43.376Z,21.35
2023-01-28T09:16:32.661Z,21.47
2023-01-28T09:19:15.883Z,21.38
2023-01-28T09:22:04.723Z,21.29
2023-01-28T09:24:46.363Z,21.38
2023-01-28T09:27:28.565Z,21.12
2023-01-28T09:30:18.588Z,20.99
2023-01-28T09:33:06.640Z,20.65
2023-01-28T09:35:49.282Z,20.56
2023-01-28T09:38:32.233Z,20.62
2023-01-28T09:41:50.368Z,20.71
2023-01-28T09:44:55.232Z,20.65
2023-01-28T09:47:48.305Z,20.64
2023-01-28T09:50:49.712Z,20.75
2023-01-28T09:53:39.387Z,20.82
2023-01-28T09:56:28.973Z,20.74
2023-01-28T09:59:32.352Z,20.74
2023-01-28T10:02:40.641Z,20.74
2023-01-28T10:05:37.126Z,20.65
2023-01-28T10:08:29.690Z,20.66
2023-01-28T10:11:25.312Z,20.57
2023-01-28T10:14:23.103Z,20.61
2023-01-28T10:17:34.459Z,20.55
2023-01-28T10:20:34.106Z,20.52
2023-01-28T10:23:26.402Z,20.47
2023-01-28T10:26:41.720Z,20.48
2023-01-28T10:29:32.271Z,20.53
2023-01-28T10:32:49.415Z,20.30
2023-01-28T10:35:43.661Z,20.30
2023-01-28T10:38:30.313Z,20.44
2023-01-28T10:41:21.324Z,20.39
2023-01-28T10:44:05.743Z,20.37
2023-01-28T10:46:56.344Z,20.33
2023-01-28T10:49:42.605Z,20.32
2023-01-28T10:52:31.240Z,20.34
2023-01-28T10:55:14.615Z,20.25
2023-01-28T10:58:03.347Z,20.00
2023-01-28T11:00:53.632Z,19.97
2023-01-28T11:03:42.775Z,19.88
2023-01-28T11:06:45.376Z,19.87
2023-01-28T11:09:37.647Z,19.92
2023-01-28T11:12:30.298Z,19.83
2023-01-28T11:15:26.347Z,19.80
2023-01-28T11:18:18.244Z,19.81
2023-01-28T11:21:07.086Z,19.71
2023-01-28T11:24:21.361Z,19.56
2023-01-28T11:27:23.660Z,19.48
2023-01-28T11:30:11.285Z,19.43
2023-01-28T11:33:15.587Z,19.35
2023-01-28T11:36:21.257Z,19.35
2023-01-28T11:39:22.826Z,19.27
2023-01-28T11:42:22.355Z,19.15
2023-01-28T11:45:04.753Z,19.05
2023-01-28T11:48:03.363Z,19.06
2023-01-28T11:51:05.870Z,19.04
2023-01-28T11:54:18.356Z,18.76
2023-01-28T11:57:35.834Z,18.70
2023-01-28T12:00:49.250Z,18.66
2023-01-28T12:03:57.171Z,18.54
2023-01-28T12:06:54.776Z,18.47
2023-01-28T12:09:48.606Z,18.33
2023-01-28T12:13:01.344Z,18.22
2023-01-28T12:16:21.833Z,18.13
2023-01-28T12:19:29.350Z,18.06
2023-01-28T12:22:44.287Z,17.95
2023-01-28T12:25:58.561Z,17.93
2023-01-28T12:28:55.304Z,17.90
2023-01-28T12:32:24.165Z,17.71
2023-01-28T12:36:00.337Z,17.55
2023-01-28T12:39:03.111Z,17.45
2023-01-28T12:42:02.302Z,17.27
2023-01-28T12:45:28.363Z,17.08
2023-01-28T12:48:26.559Z,16.73
2023-01-28T12:51:30.296Z,16.59
2023-01-28T12:54:30.340Z,16.47
2023-01-28T12:57:19.237Z,16.32
2023-01-28T13:00:41.296Z,16.15
2023-01-28T13:03:43.230Z,16.02
2023-01-28T13:06:33.050Z,15.84
2023-01-28T13:09:34.280Z,15.82
2023-01-28T13:12:17.959Z,15.82
2023-01-28T13:15:08.234Z,15.62
2023-01-28T13:18:08.736Z,15.63
2023-01-28T13:20:59.396Z,15.67
2023-01-28T13:23:57.609Z,15.76
2023-01-28T13:26:51.228Z,15.75
2023-01-28T13:29:35.775Z,15.60
2023-01-28T13:32:44.341Z,15.53
2023-01-28T13:36:01.616Z,15.50
2023-01-28T13:38:44.309Z,15.40
2023-01-28T13:41:33.615Z,15.40
2023-01-28T13:44:34.300Z,15.23
2023-01-28T13:47:32.467Z,15.00
2023-01-28T13:50:30.355Z,15.00
2023-01-28T13:53:49.741Z,14.96
2023-01-28T13:56:40.305Z,14.86
2023-01-28T13:59:47.253Z,14.80
2023-01-28T14:02:46.305Z,14.77
2023-01-28T14:05:41.749Z,14.79
2023-01-28T14:08:48.228Z,14.66
2023-01-28T14:12:14.575Z,14.61
2023-01-28T14:15:21.414Z,14.44
2023-01-28T14:18:12.276Z,14.45
2023-01-28T14:20:57.114Z,14.35
2023-01-28T14:23:46.338Z,14.25
2023-01-28T14:26:44.129Z,14.24
2023-01-28T14:29:58.372Z,14.18
2023-01-28T14:32:59.285Z,14.07
2023-01-28T14:35:53.518Z,13.98
2023-01-28T14:38:36.264Z,13.92
2023-01-28T14:41:36.289Z,13.82
2023-01-28T14:44:41.625Z,13.80
2023-01-28T14:47:53.287Z,13.73
2023-01-28T14:50:41.572Z,13.67
2023-01-28T14:53:33.227Z,13.57
2023-01-28T14:56:42.536Z,13.56
2023-01-28T14:59:48.337Z,13.47
2023-01-28T15:02:39.159Z,13.43
2023-01-28T15:05:35.228Z,13.41
2023-01-28T15:08:31.286Z,13.45
2023-01-28T15:11:23.368Z,13.39
2023-01-28T15:14:06.532Z,13.39
2023-01-28T15:16:55.836Z,13.31
2023-01-28T15:19:45.738Z,13.28
2023-01-28T15:22:32.264Z,13.18
2023-01-28T15:25:31.011Z,13.20
2023-01-28T15:28:14.277Z,13.17
2023-01-28T15:31:03.455Z,13.10
2023-01-28T15:33:58.206Z,13.14
2023-01-28T15:36:47.162Z,13.10
2023-01-28T15:39:38.367Z,13.02
2023-01-28T15:42:32.878Z,13.01
2023-01-28T15:45:25.298Z,12.95
2023-01-28T15:48:09.944Z,12.95
2023-01-28T15:51:00.266Z,12.83
2023-01-28T15:53:48.347Z,12.78
2023-01-28T15:56:42.330Z,12.80
2023-01-28T15:59:39.547Z,12.81
2023-01-28T16:02:27.287Z,12.79
2023-01-28T16:05:25.841Z,12.73
2023-01-28T16:08:18.238Z,12.85
2023-01-28T16:11:03.894Z,12.78
2023-01-28T16:14:05.092Z,12.79
2023-01-28T16:16:50.093Z,12.59
2023-01-28T16:19:57.690Z,12.50
2023-01-28T16:22:48.671Z,12.52
2023-01-28T16:25:50.396Z,12.55
2023-01-28T16:28:39.608Z,12.54
2023-01-28T16:31:22.353Z,12.45
2023-01-28T16:34:10.625Z,12.34
2023-01-28T16:37:08.354Z,12.31
2023-01-28T16:40:02.806Z,12.43
2023-01-28T16:42:54.320Z,12.36
2023-01-28T16:45:49.613Z,12.46
2023-01-28T16:48:34.365Z,12.37
2023-01-28T16:51:25.523Z,12.40
2023-01-28T16:54:12.252Z,12.34
2023-01-28T16:57:13.411Z,12.20
2023-01-28T17:00:06.065Z,12.26
2023-01-28T17:02:52.131Z,12.26
2023-01-28T17:05:41.812Z,12.25
2023-01-28T17:08:24.225Z,12.06
2023-01-28T17:11:14.675Z,12.10
2023-01-28T17:13:57.247Z,12.07
2023-01-28T17:16:45.488Z,12.05
2023-01-28T17:19:28.323Z,12.09
2023-01-28T17:22:16.563Z,12.07
2023-01-28T17:24:59.359Z,11.87
2023-01-28T17:27:41.668Z,11.89
2023-01-28T17:30:33.239Z,11.99
2023-01-28T17:33:28.137Z,11.91
2023-01-28T17:36:18.192Z,11.88
2023-01-28T17:39:08.292Z,11.91
2023-01-28T17:41:54.516Z,11.97
2023-01-28T17:44:43.269Z,11.78
2023-01-28T17:47:26.200Z,11.91
2023-01-28T17:50:20.539Z,11.92
2023-01-28T17:53:09.633Z,11.94
2023-01-28T17:55:54.321Z,11.88
2023-01-28T17:58:46.524Z,11.77
2023-01-28T18:01:30.321Z,11.69
2023-01-28T18:04:19.889Z,11.69
2023-01-28T18:07:02.212Z,11.67
2023-01-28T18:09:55.299Z,11.68
2023-01-28T18:12:38.341Z,11.57
2023-01-28T18:15:27.617Z,11.61
2023-01-28T18:18:09.286Z,11.55
2023-01-28T18:21:09.341Z,11.48
2023-01-28T18:23:58.418Z,11.54
2023-01-28T18:26:46.527Z,11.47
2023-01-28T18:29:31.301Z,11.43
2023-01-28T18:32:19.531Z,11.32
2023-01-28T18:35:11.958Z,11.31
2023-01-28T18:38:01.239Z,11.27
2023-01-28T18:40:54.647Z,11.24
2023-01-28T18:43:40.321Z,11.30
2023-01-28T18:46:29.660Z,11.26
2023-01-28T18:49:12.193Z,11.28
2023-01-28T18:52:01.658Z,11.22
2023-01-28T18:54:44.310Z,11.21
2023-01-28T18:57:32.490Z,11.13
2023-01-28T19:00:15.255Z,11.11
2023-01-28T19:02:58.516Z,11.26
2023-01-28T19:05:52.221Z,11.52
2023-01-28T19:08:42.574Z,11.23
2023-01-28T19:11:25.282Z,11.11
2023-01-28T19:14:15.137Z,11.03
2023-01-28T19:16:58.361Z,11.12
2023-01-28T19:19:46.757Z,10.99
2023-01-28T19:22:29.256Z,10.97
2023-01-28T19:25:25.300Z,10.96
2023-01-28T19:28:14.595Z,10.77
2023-01-28T19:30:57.326Z,10.79
2023-01-28T19:33:53.104Z,10.62
2023-01-28T19:36:43.650Z,10.77
2023-01-28T19:39:26.699Z,10.73
2023-01-28T19:42:15.211Z,10.64
2023-01-28T19:44:57.624Z,10.71
2023-01-28T19:47:46.291Z,10.66
2023-01-28T19:50:28.519Z,10.69
2023-01-28T19:53:17.270Z,10.62
2023-01-28T19:55:59.717Z,10.63
2023-01-28T19:58:50.233Z,10.64
2023-01-28T20:01:34.734Z,10.65
2023-01-28T20:04:23.201Z,10.71
2023-01-28T20:07:05.656Z,10.84
2023-01-28T20:09:55.249Z,10.65
2023-01-28T20:12:37.698Z,10.61
2023-01-28T20:15:26.331Z,10.50
2023-01-28T20:18:08.595Z,10.58
2023-01-28T20:21:02.364Z,10.63
2023-01-28T20:23:44.586Z,10.57
2023-01-28T20:26:36.320Z,10.54
2023-01-28T20:29:23.466Z,10.46
2023-01-28T20:32:18.355Z,10.44
2023-01-28T20:35:14.459Z,10.51
2023-01-28T20:38:03.606Z,10.52
2023-01-28T20:40:48.387Z,10.49
2023-01-28T20:43:37.249Z,10.56
2023-01-28T20:46:35.366Z,10.53
2023-01-28T20:49:17.392Z,10.33
2023-01-28T20:52:06.308Z,10.40
2023-01-28T20:54:49.570Z,10.47
2023-01-28T20:57:38.253Z,10.48
2023-01-28T21:00:27.662Z,10.58
2023-01-28T21:03:10.273Z,10.27
2023-01-28T21:05:59.732Z,10.30
2023-01-28T21:08:42.343Z,10.43
2023-01-28T21:11:32.506Z,10.57
2023-01-28T21:14:14.270Z,10.50
2023-01-28T21:17:03.223Z,10.50
2023-01-28T21:19:52.158Z,10.58
2023-01-28T21:22:41.250Z,10.63
2023-01-28T21:25:23.598Z,10.46
2023-01-28T21:28:12.251Z,10.29
2023-01-28T21:30:55.533Z,10.29
2023-01-28T21:33:45.248Z,10.51
2023-01-28T21:36:28.556Z,10.52
2023-01-28T21:39:18.196Z,10.23
2023-01-28T21:42:00.496Z,10.12
2023-01-28T21:44:49.273Z,10.30
2023-01-28T21:47:45.799Z,10.62
2023-01-28T21:50:27.498Z,10.36
2023-01-28T21:53:17.180Z,10.20
2023-01-28T21:56:05.562Z,10.05
2023-01-28T21:59:06.257Z,10.32
2023-01-28T22:01:49.112Z,10.45
2023-01-28T22:04:39.337Z,10.58
2023-01-28T22:07:28.420Z,10.35
2023-01-28T22:10:10.222Z,10.52
2023-01-28T22:12:58.558Z,10.57
2023-01-28T22:15:41.201Z,10.62
2023-01-28T22:18:30.245Z,10.57
2023-01-28T22:21:15.666Z,10.52
2023-01-28T22:24:04.252Z,10.48
2023-01-28T22:26:47.522Z,10.48
2023-01-28T22:29:36.213Z,10.51
2023-01-28T22:32:18.548Z,10.54
2023-01-28T22:35:09.153Z,10.58
2023-01-28T22:37:51.471Z,10.63
2023-01-28T22:40:42.195Z,10.45
2023-01-28T22:43:31.203Z,10.42
2023-01-28T22:46:14.306Z,10.43
2023-01-28T22:49:04.233Z,10.32
2023-01-28T22:51:46.467Z,10.23
2023-01-28T22:54:35.523Z,10.35
2023-01-28T22:57:17.367Z,10.29
2023-01-28T23:00:06.198Z,10.24
2023-01-28T23:02:54.592Z,10.09
2023-01-28T23:05:37.192Z,10.19
2023-01-28T23:08:26.185Z,10.39
2023-01-28T23:11:23.211Z,10.33
2023-01-28T23:14:24.072Z,10.25
2023-01-28T23:17:32.233Z,10.29
2023-01-28T23:20:39.277Z,10.30
2023-01-28T23:23:42.849Z,10.25
2023-01-28T23:26:31.248Z,9.95
2023-01-28T23:29:20.261Z,9.74
2023-01-28T23:32:10.775Z,10.00
2023-01-28T23:34:59.261Z,9.83
2023-01-28T23:37:47.476Z,9.59
2023-01-28T23:40:32.175Z,9.47
2023-01-28T23:43:14.593Z,9.41
2023-01-28T23:46:03.186Z,9.62
2023-01-28T23:48:45.394Z,9.94
2023-01-28T23:51:34.151Z,9.84
2023-01-28T23:54:16.407Z,9.87
2023-01-28T23:57:05.187Z,10.02
2023-01-28T23:59:47.336Z,9.88
